This is the latest recevied weather packets stored in our database for station/object DM0MR. If no packets are shown the sender has not sent any weather packets the latest 10 day(s).
| Time | Temp. | Humidity | Pressure | Rain* | Wind** | Luminosity | Snow |
|---|---|---|---|---|---|---|---|
| 1788103398 | 23.89° C | 51% | 1010.6 hPa | 0 mm | - | - | - |
| 1788102498 | 23.89° C | 50% | 1010.5 hPa | 0 mm | - | - | - |
| 1788100698 | 24.44° C | 50% | 1010.5 hPa | 0 mm | - | - | - |
| 1788096197 | 26.67° C | 48% | 1010.3 hPa | 0 mm | - | - | - |
| 1788093497 | 26.11° C | 48% | 1010.2 hPa | 0 mm | - | - | - |
| 1788090797 | 24.44° C | 57% | 1010.3 hPa | 0 mm | - | - | - |
| 1788088097 | 23.33° C | 64% | 1010.5 hPa | 0 mm | - | - | - |
| 1788087198 | 22.78° C | 67% | 1010.6 hPa | 0 mm | - | - | - |
| 1788086298 | 23.33° C | 67% | 1010.6 hPa | 0 mm | - | - | - |
| 1788083597 | 18.33° C | 86% | 1011 hPa | 0 mm | - | - | - |
| 1788081796 | 17.78° C | 89% | 1011 hPa | 0 mm | - | - | - |
| 1788079096 | 22.22° C | 64% | 1010.1 hPa | 0 mm | - | - | - |
| 1788077298 | 22.22° C | 65% | 1010 hPa | 0 mm | - | - | - |
| 1788073697 | 22.78° C | 64% | 1009.7 hPa | 0 mm | - | - | - |
| 1788071897 | 21.67° C | 71% | 1009.7 hPa | 0 mm | - | - | - |
| 1788070996 | 22.22° C | 68% | 1009.5 hPa | 0 mm | - | - | - |
| 1788069197 | 19.44° C | 76% | 1009.4 hPa | 0 mm | - | - | - |
| 1788068296 | 17.78° C | 80% | 1009.6 hPa | 0 mm | - | - | - |
| 1788067398 | 17.78° C | 82% | 1009.7 hPa | 0 mm | - | - | - |
| 1788064697 | 17.78° C | 79% | 1009.2 hPa | 0 mm | - | - | - |
| 1788062896 | 18.33° C | 78% | 1009 hPa | 0 mm | - | - | - |
| 1788061997 | 18.33° C | 78% | 1009.1 hPa | 0 mm | - | - | - |
| 1788058396 | 18.33° C | 76% | 1009.1 hPa | 0 mm | - | - | - |
| 1788055697 | 20° C | 70% | 1009.2 hPa | 0 mm | - | - | - |
| 1788054797 | 19.44° C | 70% | 1009.2 hPa | 0 mm | - | - | - |
* Rain latest hour (hover to see other rain measurements)
** Current wind speed in m/s (hover to see current wind gust speed)